createdAt,value
2019-01-08T00:01:37.937Z,100593.20
2019-01-08T00:04:06.826Z,100605.33
2019-01-08T00:06:36.024Z,100585.52
2019-01-08T00:09:05.722Z,100591.18
2019-01-08T00:11:34.624Z,100590.31
2019-01-08T00:14:03.619Z,100594.63
2019-01-08T00:16:32.267Z,100566.88
2019-01-08T00:19:01.196Z,100564.30
2019-01-08T00:21:30.086Z,100553.89
2019-01-08T00:23:58.711Z,100551.30
2019-01-08T00:26:27.664Z,100546.05
2019-01-08T00:28:56.316Z,100539.04
2019-01-08T00:31:25.243Z,100535.18
2019-01-08T00:33:53.869Z,100536.48
2019-01-08T00:36:23.132Z,100527.88
2019-01-08T00:38:52.017Z,100517.91
2019-01-08T00:41:20.877Z,100523.94
2019-01-08T00:43:50.106Z,100509.59
2019-01-08T00:46:19.001Z,100498.48
2019-01-08T00:48:47.893Z,100510.56
2019-01-08T00:51:16.784Z,100498.94
2019-01-08T00:53:45.674Z,100495.98
2019-01-08T00:56:14.564Z,100500.38
2019-01-08T00:58:51.320Z,100496.03
2019-01-08T01:01:14.496Z,100487.45
2019-01-08T01:03:43.113Z,100484.43
2019-01-08T01:06:12.073Z,100486.58
2019-01-08T01:08:40.675Z,100468.05
2019-01-08T01:11:09.543Z,100485.64
2019-01-08T01:13:41.082Z,100457.64
2019-01-08T01:16:09.994Z,100464.50
2019-01-08T01:18:38.612Z,100450.56
2019-01-08T01:21:07.605Z,100445.52
2019-01-08T01:23:36.561Z,100444.67
2019-01-08T01:26:05.765Z,100448.15
2019-01-08T01:28:35.373Z,100418.09
2019-01-08T01:31:04.069Z,100416.35
2019-01-08T01:33:33.362Z,100416.35
2019-01-08T01:36:02.322Z,100415.92
2019-01-08T01:38:31.553Z,100399.52
2019-01-08T01:41:00.443Z,100396.96
2019-01-08T01:43:29.050Z,100382.71
2019-01-08T01:45:58.329Z,100379.27
2019-01-08T01:48:27.628Z,100374.88
2019-01-08T01:50:56.615Z,100367.13
2019-01-08T01:53:25.516Z,100351.63
2019-01-08T01:55:54.406Z,100349.88
2019-01-08T01:58:23.708Z,100347.20
2019-01-08T02:00:52.301Z,100347.20
2019-01-08T02:03:21.596Z,100345.89
2019-01-08T02:05:50.481Z,100345.48
2019-01-08T02:08:19.792Z,100342.09
2019-01-08T02:10:48.776Z,100332.20
2019-01-08T02:13:17.831Z,100315.87
2019-01-08T02:18:14.661Z,100296.48
2019-01-08T02:20:43.300Z,100287.38
2019-01-08T02:23:12.212Z,100269.72
2019-01-08T02:25:41.205Z,100275.33
2019-01-08T02:28:10.505Z,100267.59
2019-01-08T02:30:39.114Z,100267.59
2019-01-08T02:33:07.776Z,100242.93
2019-01-08T02:35:37.177Z,100242.93
2019-01-08T02:38:06.477Z,100241.21
2019-01-08T02:40:35.779Z,100211.05
2019-01-08T02:43:04.492Z,100211.05
2019-01-08T02:45:33.361Z,100211.05
2019-01-08T02:48:02.364Z,100201.17
2019-01-08T02:50:31.240Z,100197.34
2019-01-08T02:52:59.869Z,100197.34
2019-01-08T02:55:28.818Z,100181.86
2019-01-08T02:57:57.804Z,100170.64
2019-01-08T03:00:26.705Z,100141.72
2019-01-08T03:02:55.902Z,100159.81
2019-01-08T03:05:24.793Z,100138.76
2019-01-08T03:07:53.992Z,100141.69
2019-01-08T03:10:23.193Z,100138.69
2019-01-08T03:12:52.393Z,100128.35
2019-01-08T03:15:21.590Z,100114.15
2019-01-08T03:17:50.764Z,100122.34
2019-01-08T03:20:19.678Z,100093.91
2019-01-08T03:22:48.338Z,100086.16
2019-01-08T03:25:17.001Z,100086.16
2019-01-08T03:27:45.947Z,100083.58
2019-01-08T03:30:14.836Z,100088.31
2019-01-08T03:32:43.497Z,100077.55
2019-01-08T03:35:12.514Z,100085.71
2019-01-08T03:37:41.407Z,100072.27
2019-01-08T03:40:10.126Z,100062.65
2019-01-08T03:42:38.981Z,100050.52
2019-01-08T03:45:07.802Z,100065.55
2019-01-08T03:47:36.765Z,100044.03
2019-01-08T03:50:05.864Z,100031.48
2019-01-08T03:52:34.853Z,100024.58
2019-01-08T03:55:03.848Z,100019.40
2019-01-08T03:57:32.625Z,100005.14
2019-01-08T04:00:02.147Z,100002.56
2019-01-08T04:02:31.119Z,99983.09
2019-01-08T04:05:00.355Z,99985.62
2019-01-08T04:07:28.975Z,99975.74
2019-01-08T04:09:57.587Z,99977.89
2019-01-08T04:12:26.802Z,99964.56
2019-01-08T04:14:55.445Z,99947.37
2019-01-08T04:17:24.380Z,99948.69
2019-01-08T04:19:53.373Z,99937.12
2019-01-08T04:22:22.256Z,99924.22
2019-01-08T04:24:50.869Z,99910.88
2019-01-08T04:27:19.853Z,99910.88
2019-01-08T04:29:50.698Z,99903.52
2019-01-08T04:32:18.828Z,99930.23
2019-01-08T04:34:47.739Z,99865.72
2019-01-08T04:37:16.387Z,99887.66
2019-01-08T04:39:45.324Z,99866.20
2019-01-08T04:42:14.316Z,99871.36
2019-01-08T04:44:43.617Z,99863.15
2019-01-08T04:47:12.243Z,99859.70
2019-01-08T04:49:41.193Z,99845.08
2019-01-08T04:52:10.145Z,99837.33
2019-01-08T04:54:38.771Z,99851.95
2019-01-08T04:57:07.472Z,99815.35
2019-01-08T04:59:36.655Z,99818.79
2019-01-08T05:02:05.552Z,99788.26
2019-01-08T05:04:34.209Z,99795.56
2019-01-08T05:07:03.121Z,99778.78
2019-01-08T05:09:32.417Z,99779.20
2019-01-08T05:12:01.639Z,99756.38
2019-01-08T05:14:30.252Z,99741.37
2019-01-08T05:16:59.213Z,99725.46
2019-01-08T05:19:28.112Z,99731.48
2019-01-08T05:21:57.100Z,99723.75
2019-01-08T05:24:26.294Z,99725.45
2019-01-08T05:26:55.495Z,99699.23
2019-01-08T05:29:24.404Z,99687.62
2019-01-08T05:31:53.274Z,99694.92
2019-01-08T05:34:22.508Z,99689.77
2019-01-08T05:36:51.474Z,99682.03
2019-01-08T05:39:20.765Z,99666.98
2019-01-08T05:41:49.963Z,99662.67
2019-01-08T05:44:19.573Z,99689.77
2019-01-08T05:46:48.531Z,99653.64
2019-01-08T05:49:17.772Z,99642.03
2019-01-08T05:51:47.168Z,99640.71
2019-01-08T05:54:15.776Z,99676.87
2019-01-08T05:56:44.748Z,99634.69
2019-01-08T05:59:13.633Z,99636.45
2019-01-08T06:01:42.275Z,99639.88
2019-01-08T06:04:11.520Z,99604.19
2019-01-08T06:06:40.568Z,99599.86
2019-01-08T06:09:09.507Z,99564.17
2019-01-08T06:11:38.606Z,99580.95
2019-01-08T06:14:07.496Z,99580.52
2019-01-08T06:16:36.825Z,99573.63
2019-01-08T06:19:05.689Z,99538.38
2019-01-08T06:21:34.573Z,99536.26
2019-01-08T06:24:03.776Z,99555.60
2019-01-08T06:26:32.412Z,99534.96
2019-01-08T06:29:01.352Z,99580.11
2019-01-08T06:31:30.351Z,99525.94
2019-01-08T06:33:59.541Z,99523.34
2019-01-08T06:36:28.436Z,99535.80
2019-01-08T06:38:57.633Z,99515.63
2019-01-08T06:41:26.527Z,99504.84
2019-01-08T06:43:55.139Z,99493.69
2019-01-08T06:46:24.101Z,99504.43
2019-01-08T06:48:52.985Z,99477.34
2019-01-08T06:51:21.883Z,99510.88
2019-01-08T06:53:50.878Z,99487.66
2019-01-08T06:56:19.881Z,99492.83
2019-01-08T06:58:48.764Z,99477.77
2019-01-08T07:01:17.402Z,99475.63
2019-01-08T07:03:46.953Z,99452.81
2019-01-08T07:06:15.880Z,99482.06
2019-01-08T07:08:44.744Z,99460.14
2019-01-08T07:11:13.343Z,99482.08
2019-01-08T07:13:42.365Z,99437.77
2019-01-08T07:16:11.322Z,99422.30
2019-01-08T07:18:40.203Z,99426.60
2019-01-08T07:21:09.198Z,99415.40
2019-01-08T07:23:37.812Z,99416.69
2019-01-08T07:26:07.085Z,99410.66
2019-01-08T07:28:36.010Z,99408.54
2019-01-08T07:31:04.967Z,99387.01
2019-01-08T07:33:33.863Z,99393.48
2019-01-08T07:36:02.748Z,99401.63
2019-01-08T07:38:31.652Z,99397.77
2019-01-08T07:41:00.840Z,99401.22
2019-01-08T07:43:29.932Z,99380.98
2019-01-08T07:45:58.547Z,99401.64
2019-01-08T07:48:27.555Z,99380.16
2019-01-08T07:50:56.505Z,99366.36
2019-01-08T07:53:25.393Z,99376.70
2019-01-08T07:55:54.592Z,99354.33
2019-01-08T07:58:23.483Z,99335.42
2019-01-08T08:00:52.401Z,99338.00
2019-01-08T08:03:21.370Z,99338.86
2019-01-08T08:05:50.258Z,99322.92
2019-01-08T08:08:19.169Z,99316.05
2019-01-08T08:10:48.167Z,99325.47
2019-01-08T08:13:17.140Z,99327.61
2019-01-08T08:15:47.403Z,99324.61
2019-01-08T08:18:16.352Z,99300.48
2019-01-08T08:20:45.553Z,99294.02
2019-01-08T08:23:14.437Z,99300.03
2019-01-08T08:25:43.338Z,99288.41
2019-01-08T08:28:12.645Z,99306.91
2019-01-08T08:30:41.937Z,99291.01
2019-01-08T08:33:10.828Z,99286.30
2019-01-08T08:35:39.718Z,99280.67
2019-01-08T08:38:08.696Z,99274.67
2019-01-08T08:40:37.651Z,99280.27
2019-01-08T08:43:06.267Z,99302.60
2019-01-08T08:45:35.185Z,99308.22
2019-01-08T08:48:04.106Z,99268.20
2019-01-08T08:50:32.976Z,99255.77
2019-01-08T08:53:01.575Z,99248.88
2019-01-08T08:55:30.240Z,99251.88
2019-01-08T08:57:59.127Z,99259.63
2019-01-08T09:00:27.753Z,99244.11
2019-01-08T09:02:56.708Z,99258.70
2019-01-08T09:05:25.596Z,99244.09
2019-01-08T09:07:54.806Z,99259.98
2019-01-08T09:10:24.095Z,99259.12
2019-01-08T09:12:52.986Z,99256.94
2019-01-08T09:15:21.878Z,99269.81
2019-01-08T09:17:50.832Z,99270.27
2019-01-08T09:20:19.765Z,99255.66
2019-01-08T09:22:48.382Z,99277.62
2019-01-08T09:25:17.938Z,99260.84
2019-01-08T09:27:46.850Z,99261.27
2019-01-08T09:30:15.838Z,99283.69
2019-01-08T09:32:44.754Z,99276.80
2019-01-08T09:35:14.030Z,99289.73
2019-01-08T09:37:42.635Z,99272.11
2019-01-08T09:40:11.361Z,99269.94
2019-01-08T09:42:39.973Z,99287.14
2019-01-08T09:45:09.434Z,99280.67
2019-01-08T09:47:38.389Z,99298.75
2019-01-08T09:50:08.515Z,99285.84
2019-01-08T09:52:37.806Z,99288.44
2019-01-08T09:55:06.930Z,99297.06
2019-01-08T09:57:36.203Z,99291.03
2019-01-08T10:00:05.520Z,99306.55
2019-01-08T10:02:34.700Z,99331.91
2019-01-08T10:05:03.678Z,99320.73
2019-01-08T10:07:32.337Z,99325.48
2019-01-08T10:10:01.282Z,99325.91
2019-01-08T10:12:30.267Z,99302.68
2019-01-08T10:14:59.158Z,99341.80
2019-01-08T10:17:28.156Z,99329.33
2019-01-08T10:19:57.036Z,99340.12
2019-01-08T10:22:26.241Z,99340.14
2019-01-08T10:24:55.132Z,99352.60
2019-01-08T10:27:24.128Z,99347.02
2019-01-08T10:29:53.127Z,99347.88
2019-01-08T10:32:21.753Z,99356.91
2019-01-08T10:34:50.380Z,99360.35
2019-01-08T10:37:19.305Z,99362.09
2019-01-08T10:39:48.175Z,99364.69
2019-01-08T10:42:17.058Z,99374.98
2019-01-08T10:44:45.739Z,99357.81
2019-01-08T10:47:14.611Z,99386.17
2019-01-08T10:49:44.146Z,99383.60
2019-01-08T10:52:12.788Z,99389.61
2019-01-08T10:54:41.723Z,99395.22
2019-01-08T10:57:10.716Z,99401.23
2019-01-08T10:59:39.321Z,99394.34
2019-01-08T11:02:08.289Z,99396.95
2019-01-08T11:04:37.492Z,99398.22
2019-01-08T11:07:06.384Z,99386.61
2019-01-08T11:09:35.488Z,99400.38
2019-01-08T11:12:04.153Z,99407.70
2019-01-08T11:14:32.769Z,99409.86
2019-01-08T11:17:01.403Z,99415.42
2019-01-08T11:19:30.328Z,99420.16
2019-01-08T11:21:58.964Z,99411.12
2019-01-08T11:24:27.583Z,99437.80
2019-01-08T11:26:56.210Z,99420.59
2019-01-08T11:29:25.488Z,99417.98
2019-01-08T11:31:54.375Z,99446.80
2019-01-08T11:34:23.371Z,99427.45
2019-01-08T11:36:52.264Z,99434.33
2019-01-08T11:39:21.236Z,99432.60
2019-01-08T11:41:49.885Z,99434.78
2019-01-08T11:44:19.145Z,99438.20
2019-01-08T11:46:48.339Z,99464.02
2019-01-08T11:49:16.995Z,99443.36
2019-01-08T11:51:45.927Z,99456.70
2019-01-08T11:54:14.912Z,99461.41
2019-01-08T11:56:43.579Z,99467.02
2019-01-08T11:59:12.169Z,99462.70
2019-01-08T12:01:40.782Z,99459.27
2019-01-08T12:04:09.663Z,99470.44
2019-01-08T12:06:38.310Z,99475.17
2019-01-08T12:09:07.576Z,99489.78
2019-01-08T12:11:36.842Z,99483.77
2019-01-08T12:14:06.399Z,99480.33
2019-01-08T12:16:35.339Z,99477.33
2019-01-08T12:19:03.974Z,99500.50
2019-01-08T12:21:32.667Z,99481.19
2019-01-08T12:24:01.655Z,99501.80
2019-01-08T12:26:30.298Z,99508.67
2019-01-08T12:28:59.390Z,99500.47
2019-01-08T12:31:28.379Z,99517.23
2019-01-08T12:33:57.991Z,99506.88
2019-01-08T12:36:26.880Z,99530.89
2019-01-08T12:38:55.774Z,99524.88
2019-01-08T12:41:24.662Z,99535.14
2019-01-08T12:43:55.604Z,99532.98
2019-01-08T12:46:24.190Z,99533.36
2019-01-08T12:48:53.489Z,99533.77
2019-01-08T12:51:22.379Z,99556.10
2019-01-08T12:53:51.376Z,99552.61
2019-01-08T12:56:20.569Z,99585.20
2019-01-08T12:58:50.178Z,99556.88
2019-01-08T13:01:21.012Z,99573.98
2019-01-08T13:03:49.686Z,99577.41
2019-01-08T13:06:18.591Z,99575.24
2019-01-08T13:08:47.588Z,99575.26
2019-01-08T13:11:16.548Z,99565.32
2019-01-08T13:13:45.184Z,99576.02
2019-01-08T13:16:14.163Z,99581.59
2019-01-08T13:18:42.770Z,99576.00
2019-01-08T13:21:11.734Z,99593.11
2019-01-08T13:23:40.735Z,99591.44
2019-01-08T13:26:09.937Z,99597.81
2019-01-08T13:28:38.829Z,99600.41
2019-01-08T13:31:07.830Z,99607.75
2019-01-08T13:33:37.113Z,99608.59
2019-01-08T13:36:06.938Z,99604.25
2019-01-08T13:38:35.593Z,99599.05
2019-01-08T13:41:04.491Z,99609.34
2019-01-08T13:43:33.817Z,99604.59
2019-01-08T13:46:03.116Z,99626.45
2019-01-08T13:48:31.990Z,99628.17
2019-01-08T13:51:00.618Z,99619.59
2019-01-08T13:53:29.574Z,99624.29
2019-01-08T13:55:58.452Z,99621.29
2019-01-08T13:58:27.358Z,99610.59
2019-01-08T14:00:55.987Z,99617.86
2019-01-08T14:03:24.935Z,99640.65
2019-01-08T14:05:54.141Z,99626.92
2019-01-08T14:08:23.140Z,99633.73
2019-01-08T14:10:56.459Z,99627.72
2019-01-08T14:13:22.963Z,99629.45
2019-01-08T14:15:51.572Z,99632.02
2019-01-08T14:18:20.850Z,99634.23
2019-01-08T14:20:49.841Z,99649.23
2019-01-08T14:23:19.040Z,99639.41
2019-01-08T14:25:47.991Z,99665.89
2019-01-08T14:28:16.660Z,99663.73
2019-01-08T14:30:45.307Z,99668.86
2019-01-08T14:33:14.190Z,99667.98
2019-01-08T14:35:43.150Z,99683.02
2019-01-08T14:38:12.389Z,99685.90
2019-01-08T14:40:41.990Z,99688.55
2019-01-08T14:43:14.299Z,99684.22
2019-01-08T14:45:41.353Z,99691.15
2019-01-08T14:48:10.612Z,99677.84
2019-01-08T14:50:39.910Z,99671.36
2019-01-08T14:53:08.921Z,99673.56
2019-01-08T14:55:37.527Z,99675.73
2019-01-08T14:58:06.482Z,99682.24
2019-01-08T15:00:35.133Z,99676.20
2019-01-08T15:03:04.673Z,99689.11
2019-01-08T15:05:33.875Z,99693.83
2019-01-08T15:08:02.764Z,99721.71
2019-01-08T15:10:31.758Z,99701.78
2019-01-08T15:13:00.751Z,99697.47
2019-01-08T15:15:29.377Z,99702.70
2019-01-08T15:17:57.996Z,99699.70
2019-01-08T15:20:27.254Z,99698.50
2019-01-08T15:22:56.109Z,99707.01
2019-01-08T15:25:24.732Z,99698.78
2019-01-08T15:27:53.891Z,99667.05
2019-01-08T15:30:22.783Z,99705.28
2019-01-08T15:32:58.145Z,99706.06
2019-01-08T15:35:22.306Z,99708.73
2019-01-08T15:37:51.241Z,99715.22
2019-01-08T15:40:20.504Z,99714.30
2019-01-08T15:42:50.312Z,99721.20
2019-01-08T15:45:18.980Z,99716.51
2019-01-08T15:47:47.901Z,99721.28
2019-01-08T15:50:16.896Z,99720.31
2019-01-08T15:52:45.867Z,99716.03
2019-01-08T15:55:14.877Z,99728.80
2019-01-08T15:57:44.091Z,99731.88
2019-01-08T16:00:13.051Z,99733.17
2019-01-08T16:02:41.975Z,99728.84
2019-01-08T16:05:10.954Z,99725.43
2019-01-08T16:07:39.845Z,99728.86
2019-01-08T16:10:08.519Z,99736.14
2019-01-08T16:12:37.422Z,99731.88
2019-01-08T16:15:06.824Z,99743.09
2019-01-08T16:17:36.025Z,99731.06
2019-01-08T16:20:05.432Z,99733.89
2019-01-08T16:22:34.061Z,99747.66
2019-01-08T16:25:03.054Z,99733.47
2019-01-08T16:27:31.996Z,99756.95
2019-01-08T16:30:00.886Z,99763.44
2019-01-08T16:32:29.783Z,99749.59
2019-01-08T16:34:58.403Z,99744.00
2019-01-08T16:37:27.036Z,99748.72
2019-01-08T16:39:55.666Z,99741.94
2019-01-08T16:42:24.612Z,99754.46
2019-01-08T16:44:53.293Z,99753.19
2019-01-08T16:47:22.201Z,99751.05
2019-01-08T16:49:51.137Z,99758.45
2019-01-08T16:52:20.495Z,99752.81
2019-01-08T16:54:49.127Z,99761.45
2019-01-08T16:57:18.072Z,99764.09
2019-01-08T16:59:47.270Z,99757.66
2019-01-08T17:02:16.468Z,99770.53
2019-01-08T17:04:45.463Z,99772.31
2019-01-08T17:07:14.131Z,99757.79
2019-01-08T17:09:43.040Z,99765.48
2019-01-08T17:12:11.764Z,99755.60
2019-01-08T17:14:41.131Z,99756.48
2019-01-08T17:17:09.751Z,99765.40
2019-01-08T17:19:38.708Z,99752.08
2019-01-08T17:22:07.328Z,99771.39
2019-01-08T17:24:36.607Z,99764.09
2019-01-08T17:27:05.229Z,99770.04
2019-01-08T17:29:34.175Z,99772.59
2019-01-08T17:32:03.155Z,99758.83
2019-01-08T17:34:32.166Z,99758.45
2019-01-08T17:37:00.813Z,99774.23
2019-01-08T17:39:29.741Z,99773.77
2019-01-08T17:41:58.630Z,99783.22
2019-01-08T17:44:27.962Z,99765.61
2019-01-08T17:46:56.604Z,99775.89
2019-01-08T17:49:25.604Z,99776.75
2019-01-08T17:51:54.743Z,99772.47
2019-01-08T17:54:23.800Z,99769.48
2019-01-08T17:56:53.307Z,99769.05
2019-01-08T17:59:22.747Z,99774.20
2019-01-08T18:01:59.862Z,99780.63
2019-01-08T18:04:28.873Z,99763.97
2019-01-08T18:06:57.781Z,99765.19
2019-01-08T18:09:26.403Z,99784.02
2019-01-08T18:11:55.356Z,99804.05
2019-01-08T18:14:24.559Z,99793.89
2019-01-08T18:16:53.462Z,99786.60
2019-01-08T18:19:22.463Z,99778.11
2019-01-08T18:21:51.054Z,99790.14
2019-01-08T18:24:19.738Z,99788.48
2019-01-08T18:26:48.731Z,99793.70
2019-01-08T18:29:17.716Z,99793.33
2019-01-08T18:31:46.361Z,99788.66
2019-01-08T18:34:15.278Z,99792.09
2019-01-08T18:36:44.161Z,99806.30
2019-01-08T18:39:13.370Z,99798.97
2019-01-08T18:41:42.577Z,99811.77
2019-01-08T18:44:11.455Z,99797.21
2019-01-08T18:46:40.449Z,99808.75
2019-01-08T18:49:09.754Z,99801.89
2019-01-08T18:51:38.349Z,99805.22
2019-01-08T18:54:07.327Z,99816.32
2019-01-08T18:56:36.325Z,99806.88
2019-01-08T18:59:05.223Z,99804.24
2019-01-08T19:01:34.239Z,99807.59
2019-01-08T19:04:03.206Z,99822.52
2019-01-08T19:06:31.843Z,99829.30
2019-01-08T19:09:44.226Z,99801.85
2019-01-08T19:12:15.635Z,99824.97
2019-01-08T19:14:44.540Z,99823.28
2019-01-08T19:17:13.123Z,99823.20
2019-01-08T19:19:42.092Z,99828.78
2019-01-08T19:22:11.105Z,99852.76
2019-01-08T19:24:40.410Z,99831.67
2019-01-08T19:27:09.009Z,99836.90
2019-01-08T19:29:38.296Z,99830.91
2019-01-08T19:32:07.600Z,99828.31
2019-01-08T19:34:36.641Z,99818.10
2019-01-08T19:37:05.368Z,99825.83
2019-01-08T19:39:33.960Z,99819.86
2019-01-08T19:42:02.615Z,99824.56
2019-01-08T19:44:31.852Z,99830.66
2019-01-08T19:47:00.484Z,99829.41
2019-01-08T19:49:30.143Z,99816.15
2019-01-08T19:51:59.035Z,99822.19
2019-01-08T19:54:28.335Z,99829.95
2019-01-08T19:56:57.655Z,99832.89
2019-01-08T19:59:26.939Z,99845.45
2019-01-08T20:01:55.589Z,99842.45
2019-01-08T20:04:24.286Z,99834.78
2019-01-08T20:06:53.523Z,99847.63
2019-01-08T20:09:25.554Z,99844.23
2019-01-08T20:11:53.445Z,99837.77
2019-01-08T20:14:23.321Z,99830.56
2019-01-08T20:16:52.351Z,99838.30
2019-01-08T20:19:21.858Z,99848.92
2019-01-08T20:21:50.830Z,99854.45
2019-01-08T20:24:19.748Z,99848.45
2019-01-08T20:26:48.948Z,99839.46
2019-01-08T20:29:17.664Z,99851.02
2019-01-08T20:31:47.055Z,99844.11
2019-01-08T20:34:16.023Z,99870.67
2019-01-08T20:36:44.701Z,99847.58
2019-01-08T20:39:15.604Z,99862.13
2019-01-08T20:41:44.776Z,99845.30
2019-01-08T20:44:14.171Z,99852.20
2019-01-08T20:46:43.015Z,99868.81
2019-01-08T20:49:11.941Z,99863.19
2019-01-08T20:51:40.571Z,99865.38
2019-01-08T20:54:09.209Z,99878.56
2019-01-08T20:56:38.099Z,99881.55
2019-01-08T20:59:07.078Z,99873.40
2019-01-08T21:01:36.081Z,99878.14
2019-01-08T21:04:05.078Z,99873.94
2019-01-08T21:06:33.690Z,99873.47
2019-01-08T21:09:03.448Z,99872.56
2019-01-08T21:11:32.074Z,99881.19
2019-01-08T21:14:01.051Z,99886.69
2019-01-08T21:16:29.667Z,99879.21
2019-01-08T21:18:58.627Z,99881.25
2019-01-08T21:21:27.518Z,99894.97
2019-01-08T21:23:56.410Z,99896.06
2019-01-08T21:26:25.302Z,99896.34
2019-01-08T21:28:53.934Z,99904.87
2019-01-08T21:31:23.392Z,99910.91
2019-01-08T21:33:52.163Z,99906.15
2019-01-08T21:36:21.039Z,99909.95
2019-01-08T21:38:49.985Z,99911.27
2019-01-08T21:41:19.331Z,99923.69
2019-01-08T21:43:48.587Z,99924.84
2019-01-08T21:46:20.527Z,99926.23
2019-01-08T21:48:49.832Z,99912.40
2019-01-08T21:51:18.722Z,99929.57
2019-01-08T21:53:47.364Z,99916.73
2019-01-08T21:56:16.712Z,99930.48
2019-01-08T21:58:46.321Z,99942.51
2019-01-08T22:01:14.938Z,99936.97
2019-01-08T22:03:43.608Z,99930.55
2019-01-08T22:06:12.478Z,99926.75
2019-01-08T22:08:41.372Z,99926.72
2019-01-08T22:11:10.040Z,99943.45
2019-01-08T22:13:38.948Z,99952.95
2019-01-08T22:16:08.162Z,99945.20
2019-01-08T22:18:37.155Z,99953.41
2019-01-08T22:21:06.352Z,99959.25
2019-01-08T22:23:35.335Z,99966.44
2019-01-08T22:26:04.330Z,99954.93
2019-01-08T22:28:33.229Z,99933.94
2019-01-08T22:31:02.120Z,99963.77
2019-01-08T22:33:31.118Z,99981.30
2019-01-08T22:36:00.105Z,99978.87
2019-01-08T22:38:29.003Z,99974.09
2019-01-08T22:40:57.990Z,99980.45
2019-01-08T22:43:26.881Z,99977.11
2019-01-08T22:45:56.266Z,99995.88
2019-01-08T22:48:25.172Z,99997.99
2019-01-08T22:50:54.475Z,99979.55
2019-01-08T22:53:23.163Z,99987.28
2019-01-08T22:55:51.891Z,100000.93
2019-01-08T22:58:20.871Z,99994.03
2019-01-08T23:01:08.072Z,100010.73
2019-01-08T23:03:37.977Z,100000.45
2019-01-08T23:06:06.563Z,100009.89
2019-01-08T23:08:35.659Z,100009.50
2019-01-08T23:11:04.363Z,99989.84
2019-01-08T23:13:33.333Z,100004.78
2019-01-08T23:16:02.638Z,100024.96
2019-01-08T23:18:31.231Z,100012.12
2019-01-08T23:20:59.892Z,100024.55
2019-01-08T23:23:28.524Z,99997.12
2019-01-08T23:25:57.592Z,100014.22
2019-01-08T23:28:26.196Z,100021.19
2019-01-08T23:30:55.530Z,100021.27
2019-01-08T23:33:24.469Z,100037.08
2019-01-08T23:35:54.178Z,100040.87
2019-01-08T23:38:23.171Z,100048.19
2019-01-08T23:40:52.160Z,100039.95
2019-01-08T23:43:20.848Z,100048.52
2019-01-08T23:45:51.288Z,100040.29
2019-01-08T23:48:20.271Z,100049.70
2019-01-08T23:50:49.567Z,100068.09
2019-01-08T23:53:29.942Z,100065.11
2019-01-08T23:56:01.069Z,100074.55
2019-01-08T23:58:30.373Z,100076.16
